createdAt,value
2022-09-17T00:01:56.486Z,78.24
2022-09-17T00:06:07.759Z,78.35
2022-09-17T00:10:09.877Z,78.29
2022-09-17T00:14:16.332Z,78.45
2022-09-17T00:18:18.626Z,78.55
2022-09-17T00:22:20.321Z,78.50
2022-09-17T00:26:22.243Z,77.67
2022-09-17T00:30:23.927Z,77.70
2022-09-17T00:34:25.673Z,77.41
2022-09-17T00:38:28.544Z,77.10
2022-09-17T00:42:30.263Z,77.89
2022-09-17T00:46:44.700Z,78.87
2022-09-17T00:50:46.543Z,79.76
2022-09-17T00:54:55.926Z,80.17
2022-09-17T00:58:58.181Z,80.51
2022-09-17T01:03:00.214Z,80.69
2022-09-17T01:07:39.108Z,80.90
2022-09-17T01:12:15.888Z,81.04
2022-09-17T01:16:43.009Z,81.57
2022-09-17T01:21:29.759Z,81.43
2022-09-17T01:26:08.054Z,82.38
2022-09-17T01:30:49.240Z,82.44
2022-09-17T01:35:01.396Z,81.73
2022-09-17T01:39:17.704Z,81.89
2022-09-17T01:43:36.330Z,81.90
2022-09-17T01:48:03.428Z,81.35
2022-09-17T01:52:07.764Z,80.79
2022-09-17T01:56:14.271Z,81.23
2022-09-17T02:00:17.524Z,81.43
2022-09-17T02:04:44.028Z,81.51
2022-09-17T02:08:53.422Z,81.15
2022-09-17T02:13:10.817Z,80.88
2022-09-17T02:17:25.209Z,80.08
2022-09-17T02:21:26.789Z,80.52
2022-09-17T02:25:45.065Z,80.47
2022-09-17T02:29:46.872Z,80.21
2022-09-17T02:33:51.796Z,80.46
2022-09-17T02:37:53.583Z,79.98
2022-09-17T02:42:15.940Z,78.93
2022-09-17T02:46:27.569Z,78.40
2022-09-17T02:50:54.249Z,78.07
2022-09-17T02:55:26.937Z,78.66
2022-09-17T02:59:47.086Z,78.84
2022-09-17T03:03:51.310Z,78.43
2022-09-17T03:07:55.737Z,78.46
2022-09-17T03:11:57.439Z,78.51
2022-09-17T03:15:59.137Z,78.48
2022-09-17T03:20:01.013Z,78.41
2022-09-17T03:24:02.826Z,77.89
2022-09-17T03:28:04.582Z,77.09
2022-09-17T03:32:06.362Z,76.87
2022-09-17T03:36:08.539Z,76.54
2022-09-17T03:40:10.639Z,76.47
2022-09-17T03:44:12.360Z,76.73
2022-09-17T03:48:14.053Z,76.94
2022-09-17T03:52:15.751Z,76.85
2022-09-17T03:56:17.759Z,76.36
2022-09-17T04:00:20.530Z,75.92
2022-09-17T04:04:22.423Z,76.09
2022-09-17T04:08:24.577Z,76.07
2022-09-17T04:12:26.264Z,76.12
2022-09-17T04:16:28.029Z,76.35
2022-09-17T04:20:29.918Z,76.30
2022-09-17T04:24:31.586Z,76.76
2022-09-17T04:28:33.258Z,77.01
2022-09-17T04:32:34.933Z,77.24
2022-09-17T04:36:36.572Z,77.54
2022-09-17T04:40:38.576Z,78.47
2022-09-17T04:44:40.343Z,78.68
2022-09-17T04:48:42.046Z,79.96
2022-09-17T04:52:44.886Z,80.93
2022-09-17T04:56:46.565Z,81.23
2022-09-17T05:00:48.660Z,81.36
2022-09-17T05:04:50.859Z,81.22
2022-09-17T05:08:52.488Z,81.54
2022-09-17T05:12:57.492Z,81.99
2022-09-17T05:16:59.131Z,81.65
2022-09-17T05:21:00.811Z,82.34
2022-09-17T05:25:02.487Z,82.31
2022-09-17T05:29:04.873Z,82.47
2022-09-17T05:33:07.232Z,82.97
2022-09-17T05:37:12.164Z,82.95
2022-09-17T05:41:13.884Z,83.17
2022-09-17T05:45:15.572Z,83.64
2022-09-17T05:49:17.310Z,83.87
2022-09-17T05:53:19.338Z,84.48
2022-09-17T05:57:20.978Z,84.41
2022-09-17T06:01:23.302Z,84.56
2022-09-17T06:05:25.317Z,83.65
2022-09-17T06:09:26.968Z,83.01
2022-09-17T06:13:29.069Z,82.44
2022-09-17T06:17:35.350Z,82.13
2022-09-17T06:21:36.996Z,81.83
2022-09-17T06:25:38.695Z,81.73
2022-09-17T06:29:41.042Z,80.91
2022-09-17T06:33:42.735Z,81.06
2022-09-17T06:37:44.411Z,80.77
2022-09-17T06:41:46.321Z,80.84
2022-09-17T06:46:00.654Z,81.24
2022-09-17T06:50:02.579Z,81.36
2022-09-17T06:54:05.141Z,80.52
2022-09-17T06:58:06.850Z,80.11
2022-09-17T07:02:09.841Z,79.43
2022-09-17T07:06:12.653Z,79.19
2022-09-17T07:10:15.229Z,78.85
2022-09-17T07:14:16.945Z,78.15
2022-09-17T07:18:18.692Z,78.00
2022-09-17T07:22:20.484Z,77.71
2022-09-17T07:26:22.201Z,78.25
2022-09-17T07:30:23.928Z,77.42
2022-09-17T07:34:28.144Z,76.42
2022-09-17T07:38:31.250Z,76.50
2022-09-17T07:42:33.184Z,76.40
2022-09-17T07:46:34.908Z,76.96
2022-09-17T07:50:38.077Z,77.57
2022-09-17T07:54:40.035Z,77.71
2022-09-17T07:58:42.338Z,77.83
2022-09-17T08:02:44.343Z,77.95
2022-09-17T08:06:48.515Z,77.67
2022-09-17T08:10:50.166Z,77.70
2022-09-17T08:14:51.830Z,77.45
2022-09-17T08:18:57.642Z,77.81
2022-09-17T08:23:00.724Z,77.43
2022-09-17T08:27:02.506Z,77.11
2022-09-17T08:31:08.802Z,77.07
2022-09-17T08:35:11.949Z,76.40
2022-09-17T08:39:14.053Z,77.35
2022-09-17T08:43:19.693Z,77.44
2022-09-17T08:47:36.576Z,77.57
2022-09-17T08:52:10.153Z,77.56
2022-09-17T08:56:18.405Z,77.10
2022-09-17T09:00:20.897Z,77.19
2022-09-17T09:04:33.051Z,77.17
2022-09-17T09:08:51.220Z,78.13
2022-09-17T09:12:55.789Z,78.78
2022-09-17T09:16:58.131Z,79.14
2022-09-17T09:21:06.105Z,79.24
2022-09-17T09:25:27.291Z,80.15
2022-09-17T09:30:05.105Z,80.39
2022-09-17T09:34:07.219Z,79.77
2022-09-17T09:38:32.835Z,81.19
2022-09-17T09:42:39.570Z,81.00
2022-09-17T09:46:59.757Z,81.08
2022-09-17T09:51:09.053Z,80.35
2022-09-17T09:55:43.983Z,78.83
2022-09-17T09:59:45.662Z,78.11
2022-09-17T10:03:48.686Z,78.20
2022-09-17T10:07:51.006Z,77.76
2022-09-17T10:12:03.423Z,76.94
2022-09-17T10:16:29.360Z,76.87
2022-09-17T10:20:31.090Z,74.79
2022-09-17T10:24:34.387Z,71.88
2022-09-17T10:28:46.883Z,70.27
2022-09-17T10:33:44.100Z,68.84
